sensor_id;sensor_type;location;lat;lon;timestamp;P1;durP1;ratioP1;P2;durP2;ratioP2
13967;SDS011;39536;52.198;9.920;2023-05-21T00:01:54;12.83;;;12.03;;
13967;SDS011;39536;52.198;9.920;2023-05-21T00:04:21;13.60;;;12.70;;
13967;SDS011;39536;52.198;9.920;2023-05-21T00:06:49;14.53;;;13.23;;
13967;SDS011;39536;52.198;9.920;2023-05-21T00:09:17;14.20;;;13.07;;
13967;SDS011;39536;52.198;9.920;2023-05-21T00:11:44;13.30;;;12.40;;
13967;SDS011;39536;52.198;9.920;2023-05-21T00:14:10;12.60;;;11.70;;
13967;SDS011;39536;52.198;9.920;2023-05-21T00:16:37;12.13;;;11.33;;
13967;SDS011;39536;52.198;9.920;2023-05-21T00:19:03;12.20;;;11.40;;
13967;SDS011;39536;52.198;9.920;2023-05-21T00:21:30;12.43;;;11.63;;
13967;SDS011;39536;52.198;9.920;2023-05-21T00:23:57;12.47;;;11.57;;
13967;SDS011;39536;52.198;9.920;2023-05-21T00:26:25;13.27;;;12.17;;
13967;SDS011;39536;52.198;9.920;2023-05-21T00:28:51;12.53;;;11.53;;
13967;SDS011;39536;52.198;9.920;2023-05-21T00:31:18;12.00;;;11.10;;
13967;SDS011;39536;52.198;9.920;2023-05-21T00:33:44;11.53;;;10.60;;
13967;SDS011;39536;52.198;9.920;2023-05-21T00:36:11;11.87;;;10.97;;
13967;SDS011;39536;52.198;9.920;2023-05-21T00:38:38;11.90;;;11.00;;
13967;SDS011;39536;52.198;9.920;2023-05-21T00:41:07;11.73;;;10.93;;
13967;SDS011;39536;52.198;9.920;2023-05-21T00:43:35;11.83;;;10.83;;
13967;SDS011;39536;52.198;9.920;2023-05-21T00:46:06;11.60;;;10.73;;
13967;SDS011;39536;52.198;9.920;2023-05-21T00:48:32;11.33;;;10.53;;
13967;SDS011;39536;52.198;9.920;2023-05-21T00:50:59;12.70;;;10.87;;
13967;SDS011;39536;52.198;9.920;2023-05-21T00:53:26;10.93;;;10.23;;
13967;SDS011;39536;52.198;9.920;2023-05-21T00:55:54;11.93;;;10.83;;
13967;SDS011;39536;52.198;9.920;2023-05-21T00:58:21;11.70;;;10.80;;
13967;SDS011;39536;52.198;9.920;2023-05-21T01:00:49;11.33;;;10.53;;
13967;SDS011;39536;52.198;9.920;2023-05-21T01:03:19;11.63;;;10.77;;
13967;SDS011;39536;52.198;9.920;2023-05-21T01:05:47;11.73;;;10.83;;
13967;SDS011;39536;52.198;9.920;2023-05-21T01:08:17;10.97;;;10.27;;
13967;SDS011;39536;52.198;9.920;2023-05-21T01:10:44;12.07;;;11.10;;
13967;SDS011;39536;52.198;9.920;2023-05-21T01:13:11;11.70;;;10.90;;
13967;SDS011;39536;52.198;9.920;2023-05-21T01:15:39;11.50;;;10.80;;
13967;SDS011;39536;52.198;9.920;2023-05-21T01:18:07;11.73;;;10.83;;
13967;SDS011;39536;52.198;9.920;2023-05-21T01:20:34;11.90;;;11.10;;
13967;SDS011;39536;52.198;9.920;2023-05-21T01:23:03;10.90;;;10.20;;
13967;SDS011;39536;52.198;9.920;2023-05-21T01:25:30;11.17;;;10.47;;
13967;SDS011;39536;52.198;9.920;2023-05-21T01:27:57;11.27;;;10.47;;
13967;SDS011;39536;52.198;9.920;2023-05-21T01:30:23;12.03;;;11.13;;
13967;SDS011;39536;52.198;9.920;2023-05-21T01:32:54;11.20;;;10.40;;
13967;SDS011;39536;52.198;9.920;2023-05-21T01:35:25;11.80;;;10.70;;
13967;SDS011;39536;52.198;9.920;2023-05-21T01:37:58;11.50;;;10.60;;
13967;SDS011;39536;52.198;9.920;2023-05-21T01:40:38;10.47;;;9.67;;
13967;SDS011;39536;52.198;9.920;2023-05-21T01:43:10;11.13;;;10.37;;
13967;SDS011;39536;52.198;9.920;2023-05-21T01:45:39;11.53;;;10.73;;
13967;SDS011;39536;52.198;9.920;2023-05-21T01:48:08;11.77;;;10.90;;
13967;SDS011;39536;52.198;9.920;2023-05-21T01:50:37;11.27;;;10.53;;
13967;SDS011;39536;52.198;9.920;2023-05-21T01:53:06;10.83;;;10.03;;
13967;SDS011;39536;52.198;9.920;2023-05-21T01:55:33;11.57;;;10.67;;
13967;SDS011;39536;52.198;9.920;2023-05-21T01:58:03;12.07;;;11.17;;
13967;SDS011;39536;52.198;9.920;2023-05-21T02:00:30;11.30;;;10.47;;
13967;SDS011;39536;52.198;9.920;2023-05-21T02:02:56;11.90;;;11.00;;
13967;SDS011;39536;52.198;9.920;2023-05-21T02:05:23;11.40;;;10.53;;
13967;SDS011;39536;52.198;9.920;2023-05-21T02:07:50;11.53;;;10.73;;
13967;SDS011;39536;52.198;9.920;2023-05-21T02:10:18;11.73;;;10.67;;
13967;SDS011;39536;52.198;9.920;2023-05-21T02:12:45;11.40;;;10.60;;
13967;SDS011;39536;52.198;9.920;2023-05-21T02:15:12;12.10;;;11.17;;
13967;SDS011;39536;52.198;9.920;2023-05-21T02:17:41;12.10;;;11.10;;
13967;SDS011;39536;52.198;9.920;2023-05-21T02:20:08;11.37;;;10.60;;
13967;SDS011;39536;52.198;9.920;2023-05-21T02:22:36;11.13;;;10.33;;
13967;SDS011;39536;52.198;9.920;2023-05-21T02:25:04;12.07;;;11.07;;
13967;SDS011;39536;52.198;9.920;2023-05-21T02:27:34;11.70;;;10.80;;
13967;SDS011;39536;52.198;9.920;2023-05-21T02:30:01;11.27;;;10.47;;
13967;SDS011;39536;52.198;9.920;2023-05-21T02:32:29;12.07;;;11.27;;
13967;SDS011;39536;52.198;9.920;2023-05-21T02:34:57;11.30;;;10.40;;
13967;SDS011;39536;52.198;9.920;2023-05-21T02:37:25;11.50;;;10.33;;
13967;SDS011;39536;52.198;9.920;2023-05-21T02:39:52;11.30;;;10.50;;
13967;SDS011;39536;52.198;9.920;2023-05-21T02:42:18;11.67;;;10.67;;
13967;SDS011;39536;52.198;9.920;2023-05-21T02:44:46;11.90;;;11.03;;
13967;SDS011;39536;52.198;9.920;2023-05-21T02:47:13;11.90;;;11.00;;
13967;SDS011;39536;52.198;9.920;2023-05-21T02:49:40;11.50;;;10.50;;
13967;SDS011;39536;52.198;9.920;2023-05-21T02:52:06;11.27;;;10.47;;
13967;SDS011;39536;52.198;9.920;2023-05-21T02:54:33;12.00;;;11.10;;
13967;SDS011;39536;52.198;9.920;2023-05-21T02:56:59;11.30;;;10.57;;
13967;SDS011;39536;52.198;9.920;2023-05-21T02:59:26;11.33;;;10.43;;
13967;SDS011;39536;52.198;9.920;2023-05-21T03:01:54;11.70;;;10.80;;
13967;SDS011;39536;52.198;9.920;2023-05-21T03:04:20;11.33;;;10.53;;
13967;SDS011;39536;52.198;9.920;2023-05-21T03:06:47;11.67;;;10.67;;
13967;SDS011;39536;52.198;9.920;2023-05-21T03:09:15;10.90;;;9.87;;
13967;SDS011;39536;52.198;9.920;2023-05-21T03:11:42;10.87;;;9.93;;
13967;SDS011;39536;52.198;9.920;2023-05-21T03:14:09;10.50;;;9.73;;
13967;SDS011;39536;52.198;9.920;2023-05-21T03:16:36;11.33;;;10.53;;
13967;SDS011;39536;52.198;9.920;2023-05-21T03:19:07;10.83;;;10.03;;
13967;SDS011;39536;52.198;9.920;2023-05-21T03:21:33;12.00;;;11.00;;
13967;SDS011;39536;52.198;9.920;2023-05-21T03:24:00;12.67;;;11.47;;
13967;SDS011;39536;52.198;9.920;2023-05-21T03:26:27;10.80;;;10.00;;
13967;SDS011;39536;52.198;9.920;2023-05-21T03:28:54;11.67;;;10.87;;
13967;SDS011;39536;52.198;9.920;2023-05-21T03:31:21;11.40;;;10.60;;
13967;SDS011;39536;52.198;9.920;2023-05-21T03:33:47;11.67;;;10.37;;
13967;SDS011;39536;52.198;9.920;2023-05-21T03:36:16;11.83;;;10.93;;
13967;SDS011;39536;52.198;9.920;2023-05-21T03:38:43;11.93;;;10.73;;
13967;SDS011;39536;52.198;9.920;2023-05-21T03:41:10;12.73;;;11.73;;
13967;SDS011;39536;52.198;9.920;2023-05-21T03:43:37;11.87;;;11.07;;
13967;SDS011;39536;52.198;9.920;2023-05-21T03:46:04;11.60;;;10.80;;
13967;SDS011;39536;52.198;9.920;2023-05-21T03:48:30;11.83;;;10.93;;
13967;SDS011;39536;52.198;9.920;2023-05-21T03:50:57;11.97;;;11.17;;
13967;SDS011;39536;52.198;9.920;2023-05-21T03:53:25;11.70;;;10.80;;
13967;SDS011;39536;52.198;9.920;2023-05-21T03:55:51;11.87;;;10.87;;
13967;SDS011;39536;52.198;9.920;2023-05-21T03:58:19;12.20;;;11.33;;
13967;SDS011;39536;52.198;9.920;2023-05-21T04:00:46;11.30;;;10.30;;
13967;SDS011;39536;52.198;9.920;2023-05-21T04:03:13;11.67;;;10.77;;
13967;SDS011;39536;52.198;9.920;2023-05-21T04:05:40;11.83;;;10.80;;
13967;SDS011;39536;52.198;9.920;2023-05-21T04:08:07;11.93;;;11.13;;
13967;SDS011;39536;52.198;9.920;2023-05-21T04:10:35;11.77;;;10.60;;
13967;SDS011;39536;52.198;9.920;2023-05-21T04:13:02;11.57;;;10.83;;
13967;SDS011;39536;52.198;9.920;2023-05-21T04:15:28;12.17;;;11.00;;
13967;SDS011;39536;52.198;9.920;2023-05-21T04:17:55;12.40;;;11.37;;
13967;SDS011;39536;52.198;9.920;2023-05-21T04:20:22;11.30;;;10.37;;
13967;SDS011;39536;52.198;9.920;2023-05-21T04:22:49;11.17;;;10.37;;
13967;SDS011;39536;52.198;9.920;2023-05-21T04:25:16;11.50;;;10.67;;
13967;SDS011;39536;52.198;9.920;2023-05-21T04:27:45;12.30;;;11.43;;
13967;SDS011;39536;52.198;9.920;2023-05-21T04:30:12;10.40;;;9.70;;
13967;SDS011;39536;52.198;9.920;2023-05-21T04:32:39;10.87;;;10.17;;
13967;SDS011;39536;52.198;9.920;2023-05-21T04:35:06;11.63;;;10.63;;
13967;SDS011;39536;52.198;9.920;2023-05-21T04:37:34;11.67;;;10.67;;
13967;SDS011;39536;52.198;9.920;2023-05-21T04:40:00;10.63;;;9.73;;
13967;SDS011;39536;52.198;9.920;2023-05-21T04:42:27;10.83;;;10.03;;
13967;SDS011;39536;52.198;9.920;2023-05-21T04:44:55;11.30;;;10.30;;
13967;SDS011;39536;52.198;9.920;2023-05-21T04:47:23;10.83;;;9.83;;
13967;SDS011;39536;52.198;9.920;2023-05-21T04:49:49;10.07;;;9.27;;
13967;SDS011;39536;52.198;9.920;2023-05-21T04:52:17;9.43;;;8.83;;
13967;SDS011;39536;52.198;9.920;2023-05-21T04:54:43;9.70;;;9.00;;
13967;SDS011;39536;52.198;9.920;2023-05-21T04:57:11;9.60;;;8.93;;
13967;SDS011;39536;52.198;9.920;2023-05-21T04:59:39;9.50;;;8.73;;
13967;SDS011;39536;52.198;9.920;2023-05-21T05:02:09;9.60;;;8.90;;
13967;SDS011;39536;52.198;9.920;2023-05-21T05:04:35;9.53;;;8.73;;
13967;SDS011;39536;52.198;9.920;2023-05-21T05:07:02;9.30;;;8.60;;
13967;SDS011;39536;52.198;9.920;2023-05-21T05:09:29;10.23;;;9.43;;
13967;SDS011;39536;52.198;9.920;2023-05-21T05:11:55;9.90;;;9.20;;
13967;SDS011;39536;52.198;9.920;2023-05-21T05:14:22;9.57;;;8.77;;
13967;SDS011;39536;52.198;9.920;2023-05-21T05:16:48;10.00;;;9.20;;
13967;SDS011;39536;52.198;9.920;2023-05-21T05:19:16;9.90;;;9.10;;
13967;SDS011;39536;52.198;9.920;2023-05-21T05:21:43;9.33;;;8.63;;
13967;SDS011;39536;52.198;9.920;2023-05-21T05:24:09;9.23;;;8.53;;
13967;SDS011;39536;52.198;9.920;2023-05-21T05:26:36;9.63;;;8.83;;
13967;SDS011;39536;52.198;9.920;2023-05-21T05:29:03;10.43;;;9.53;;
13967;SDS011;39536;52.198;9.920;2023-05-21T05:31:29;10.40;;;9.60;;
13967;SDS011;39536;52.198;9.920;2023-05-21T05:33:56;10.03;;;9.13;;
13967;SDS011;39536;52.198;9.920;2023-05-21T05:36:24;9.93;;;9.13;;
13967;SDS011;39536;52.198;9.920;2023-05-21T05:38:51;9.67;;;9.07;;
13967;SDS011;39536;52.198;9.920;2023-05-21T05:41:18;9.93;;;9.23;;
13967;SDS011;39536;52.198;9.920;2023-05-21T05:43:45;10.97;;;9.93;;
13967;SDS011;39536;52.198;9.920;2023-05-21T05:46:11;11.07;;;10.10;;
13967;SDS011;39536;52.198;9.920;2023-05-21T05:48:39;10.63;;;9.83;;
13967;SDS011;39536;52.198;9.920;2023-05-21T05:51:05;11.20;;;10.33;;
13967;SDS011;39536;52.198;9.920;2023-05-21T05:53:34;10.87;;;9.87;;
13967;SDS011;39536;52.198;9.920;2023-05-21T05:56:02;11.17;;;10.27;;
13967;SDS011;39536;52.198;9.920;2023-05-21T05:58:29;11.03;;;10.27;;
13967;SDS011;39536;52.198;9.920;2023-05-21T06:00:56;10.50;;;9.80;;
13967;SDS011;39536;52.198;9.920;2023-05-21T06:03:22;10.93;;;10.10;;
13967;SDS011;39536;52.198;9.920;2023-05-21T06:05:49;11.47;;;10.40;;
13967;SDS011;39536;52.198;9.920;2023-05-21T06:08:16;11.47;;;10.57;;
13967;SDS011;39536;52.198;9.920;2023-05-21T06:10:44;11.67;;;10.77;;
13967;SDS011;39536;52.198;9.920;2023-05-21T06:13:11;12.87;;;11.77;;
13967;SDS011;39536;52.198;9.920;2023-05-21T06:15:38;11.37;;;10.57;;
13967;SDS011;39536;52.198;9.920;2023-05-21T06:18:07;12.13;;;11.10;;
13967;SDS011;39536;52.198;9.920;2023-05-21T06:20:33;11.90;;;10.80;;
13967;SDS011;39536;52.198;9.920;2023-05-21T06:23:00;12.33;;;11.37;;
13967;SDS011;39536;52.198;9.920;2023-05-21T06:25:27;12.43;;;11.33;;
13967;SDS011;39536;52.198;9.920;2023-05-21T06:27:55;12.17;;;11.27;;
13967;SDS011;39536;52.198;9.920;2023-05-21T06:30:22;11.30;;;10.50;;
13967;SDS011;39536;52.198;9.920;2023-05-21T06:32:48;12.53;;;11.63;;
13967;SDS011;39536;52.198;9.920;2023-05-21T06:35:15;12.30;;;11.43;;
13967;SDS011;39536;52.198;9.920;2023-05-21T06:37:41;12.37;;;11.23;;
13967;SDS011;39536;52.198;9.920;2023-05-21T06:40:08;12.13;;;11.23;;
13967;SDS011;39536;52.198;9.920;2023-05-21T06:42:35;13.00;;;12.10;;
13967;SDS011;39536;52.198;9.920;2023-05-21T06:45:04;13.20;;;12.20;;
13967;SDS011;39536;52.198;9.920;2023-05-21T06:47:31;13.93;;;12.53;;
13967;SDS011;39536;52.198;9.920;2023-05-21T06:49:57;14.47;;;13.17;;
13967;SDS011;39536;52.198;9.920;2023-05-21T06:52:24;14.33;;;13.23;;
13967;SDS011;39536;52.198;9.920;2023-05-21T06:54:51;15.23;;;14.13;;
13967;SDS011;39536;52.198;9.920;2023-05-21T06:57:18;14.77;;;13.77;;
13967;SDS011;39536;52.198;9.920;2023-05-21T06:59:45;15.20;;;13.80;;
13967;SDS011;39536;52.198;9.920;2023-05-21T07:02:13;15.03;;;13.97;;
13967;SDS011;39536;52.198;9.920;2023-05-21T07:04:40;15.13;;;13.93;;
13967;SDS011;39536;52.198;9.920;2023-05-21T07:07:06;14.87;;;13.70;;
13967;SDS011;39536;52.198;9.920;2023-05-21T07:09:33;14.60;;;13.60;;
13967;SDS011;39536;52.198;9.920;2023-05-21T07:12:00;15.03;;;13.97;;
13967;SDS011;39536;52.198;9.920;2023-05-21T07:14:26;16.17;;;14.60;;
13967;SDS011;39536;52.198;9.920;2023-05-21T07:16:53;15.33;;;14.13;;
13967;SDS011;39536;52.198;9.920;2023-05-21T07:19:21;15.37;;;14.27;;
13967;SDS011;39536;52.198;9.920;2023-05-21T07:21:47;15.30;;;14.20;;
13967;SDS011;39536;52.198;9.920;2023-05-21T07:24:14;17.47;;;16.17;;
13967;SDS011;39536;52.198;9.920;2023-05-21T07:26:41;17.63;;;16.33;;
13967;SDS011;39536;52.198;9.920;2023-05-21T07:29:07;16.90;;;15.60;;
13967;SDS011;39536;52.198;9.920;2023-05-21T07:31:34;19.00;;;17.27;;
13967;SDS011;39536;52.198;9.920;2023-05-21T07:34:01;19.40;;;17.90;;
13967;SDS011;39536;52.198;9.920;2023-05-21T07:36:28;18.00;;;16.53;;
13967;SDS011;39536;52.198;9.920;2023-05-21T07:38:57;18.97;;;17.43;;
13967;SDS011;39536;52.198;9.920;2023-05-21T07:41:24;19.17;;;17.57;;
13967;SDS011;39536;52.198;9.920;2023-05-21T07:43:50;18.17;;;16.43;;
13967;SDS011;39536;52.198;9.920;2023-05-21T07:46:17;20.53;;;18.87;;
13967;SDS011;39536;52.198;9.920;2023-05-21T07:48:43;20.87;;;19.27;;
13967;SDS011;39536;52.198;9.920;2023-05-21T07:51:10;21.13;;;19.17;;
13967;SDS011;39536;52.198;9.920;2023-05-21T07:53:39;19.37;;;17.77;;
13967;SDS011;39536;52.198;9.920;2023-05-21T07:56:05;20.40;;;18.60;;
13967;SDS011;39536;52.198;9.920;2023-05-21T07:58:32;19.77;;;18.27;;
13967;SDS011;39536;52.198;9.920;2023-05-21T08:00:59;19.87;;;18.37;;
13967;SDS011;39536;52.198;9.920;2023-05-21T08:03:26;21.93;;;19.03;;
13967;SDS011;39536;52.198;9.920;2023-05-21T08:05:55;22.23;;;20.37;;
13967;SDS011;39536;52.198;9.920;2023-05-21T08:08:22;24.03;;;21.60;;
13967;SDS011;39536;52.198;9.920;2023-05-21T08:10:50;21.93;;;20.10;;
13967;SDS011;39536;52.198;9.920;2023-05-21T08:13:17;22.13;;;20.13;;
13967;SDS011;39536;52.198;9.920;2023-05-21T08:15:43;22.40;;;20.43;;
13967;SDS011;39536;52.198;9.920;2023-05-21T08:18:10;21.03;;;19.10;;
13967;SDS011;39536;52.198;9.920;2023-05-21T08:20:36;22.13;;;20.27;;
13967;SDS011;39536;52.198;9.920;2023-05-21T08:23:03;20.90;;;19.30;;
13967;SDS011;39536;52.198;9.920;2023-05-21T08:25:30;20.47;;;18.97;;
13967;SDS011;39536;52.198;9.920;2023-05-21T08:27:58;20.23;;;18.83;;
13967;SDS011;39536;52.198;9.920;2023-05-21T08:30:24;21.40;;;19.60;;
13967;SDS011;39536;52.198;9.920;2023-05-21T08:32:51;21.57;;;19.67;;
13967;SDS011;39536;52.198;9.920;2023-05-21T08:35:18;22.57;;;20.77;;
13967;SDS011;39536;52.198;9.920;2023-05-21T08:37:45;21.00;;;19.27;;
13967;SDS011;39536;52.198;9.920;2023-05-21T08:40:12;22.07;;;20.47;;
13967;SDS011;39536;52.198;9.920;2023-05-21T08:42:40;21.23;;;19.63;;
13967;SDS011;39536;52.198;9.920;2023-05-21T08:45:11;22.80;;;21.03;;
13967;SDS011;39536;52.198;9.920;2023-05-21T08:47:40;22.40;;;20.77;;
13967;SDS011;39536;52.198;9.920;2023-05-21T08:50:08;22.97;;;20.90;;
13967;SDS011;39536;52.198;9.920;2023-05-21T08:52:36;23.40;;;21.53;;
13967;SDS011;39536;52.198;9.920;2023-05-21T08:55:03;24.27;;;22.37;;
13967;SDS011;39536;52.198;9.920;2023-05-21T08:57:31;24.37;;;22.47;;
13967;SDS011;39536;52.198;9.920;2023-05-21T08:59:58;23.13;;;20.97;;
13967;SDS011;39536;52.198;9.920;2023-05-21T09:02:27;21.80;;;20.30;;
13967;SDS011;39536;52.198;9.920;2023-05-21T09:04:58;23.77;;;22.00;;
13967;SDS011;39536;52.198;9.920;2023-05-21T09:07:27;23.33;;;21.73;;
13967;SDS011;39536;52.198;9.920;2023-05-21T09:09:56;23.67;;;21.83;;
13967;SDS011;39536;52.198;9.920;2023-05-21T09:12:23;23.43;;;21.73;;
13967;SDS011;39536;52.198;9.920;2023-05-21T09:14:50;25.17;;;23.27;;
13967;SDS011;39536;52.198;9.920;2023-05-21T09:17:17;25.83;;;23.70;;
13967;SDS011;39536;52.198;9.920;2023-05-21T09:22:36;24.57;;;22.57;;
13967;SDS011;39536;52.198;9.920;2023-05-21T09:25:05;25.03;;;23.03;;
13967;SDS011;39536;52.198;9.920;2023-05-21T09:27:33;22.90;;;21.23;;
13967;SDS011;39536;52.198;9.920;2023-05-21T09:30:00;24.03;;;22.17;;
13967;SDS011;39536;52.198;9.920;2023-05-21T09:32:27;25.23;;;23.53;;
13967;SDS011;39536;52.198;9.920;2023-05-21T09:34:54;25.17;;;23.33;;
13967;SDS011;39536;52.198;9.920;2023-05-21T09:37:22;23.97;;;22.27;;
13967;SDS011;39536;52.198;9.920;2023-05-21T09:39:49;23.27;;;21.67;;
13967;SDS011;39536;52.198;9.920;2023-05-21T09:42:17;24.30;;;22.43;;
13967;SDS011;39536;52.198;9.920;2023-05-21T09:44:46;25.37;;;23.47;;
13967;SDS011;39536;52.198;9.920;2023-05-21T09:47:13;24.27;;;22.50;;
13967;SDS011;39536;52.198;9.920;2023-05-21T09:49:44;24.17;;;22.47;;
13967;SDS011;39536;52.198;9.920;2023-05-21T09:52:11;23.97;;;22.17;;
13967;SDS011;39536;52.198;9.920;2023-05-21T09:54:39;25.23;;;23.50;;
13967;SDS011;39536;52.198;9.920;2023-05-21T09:57:05;25.90;;;24.03;;
13967;SDS011;39536;52.198;9.920;2023-05-21T09:59:35;25.00;;;23.20;;
13967;SDS011;39536;52.198;9.920;2023-05-21T10:02:02;27.07;;;24.87;;
13967;SDS011;39536;52.198;9.920;2023-05-21T10:04:40;24.77;;;22.87;;
13967;SDS011;39536;52.198;9.920;2023-05-21T10:07:08;24.37;;;22.53;;
13967;SDS011;39536;52.198;9.920;2023-05-21T10:09:34;25.90;;;23.73;;
13967;SDS011;39536;52.198;9.920;2023-05-21T10:12:03;25.20;;;23.23;;
13967;SDS011;39536;52.198;9.920;2023-05-21T10:14:31;24.50;;;22.70;;
13967;SDS011;39536;52.198;9.920;2023-05-21T10:16:59;23.00;;;21.47;;
13967;SDS011;39536;52.198;9.920;2023-05-21T10:19:26;24.43;;;22.53;;
13967;SDS011;39536;52.198;9.920;2023-05-21T10:21:55;25.43;;;23.47;;
13967;SDS011;39536;52.198;9.920;2023-05-21T10:24:22;25.00;;;23.13;;
13967;SDS011;39536;52.198;9.920;2023-05-21T10:26:50;25.23;;;23.37;;
13967;SDS011;39536;52.198;9.920;2023-05-21T10:29:18;24.33;;;22.73;;
13967;SDS011;39536;52.198;9.920;2023-05-21T10:31:46;23.83;;;22.03;;
13967;SDS011;39536;52.198;9.920;2023-05-21T10:34:17;23.73;;;21.93;;
13967;SDS011;39536;52.198;9.920;2023-05-21T10:36:44;24.10;;;22.53;;
13967;SDS011;39536;52.198;9.920;2023-05-21T10:39:15;22.63;;;21.00;;
13967;SDS011;39536;52.198;9.920;2023-05-21T10:41:45;23.23;;;21.70;;
13967;SDS011;39536;52.198;9.920;2023-05-21T10:44:22;24.00;;;22.20;;
13967;SDS011;39536;52.198;9.920;2023-05-21T10:46:59;22.10;;;20.63;;
13967;SDS011;39536;52.198;9.920;2023-05-21T10:49:44;22.87;;;21.27;;
13967;SDS011;39536;52.198;9.920;2023-05-21T10:52:29;21.30;;;19.90;;
13967;SDS011;39536;52.198;9.920;2023-05-21T10:55:08;23.57;;;21.83;;
13967;SDS011;39536;52.198;9.920;2023-05-21T10:57:45;22.03;;;20.27;;
13967;SDS011;39536;52.198;9.920;2023-05-21T11:00:27;23.07;;;21.20;;
13967;SDS011;39536;52.198;9.920;2023-05-21T11:02:55;22.20;;;20.80;;
13967;SDS011;39536;52.198;9.920;2023-05-21T11:05:36;21.60;;;19.80;;
13967;SDS011;39536;52.198;9.920;2023-05-21T11:08:04;20.93;;;19.30;;
13967;SDS011;39536;52.198;9.920;2023-05-21T11:10:43;22.47;;;20.83;;
13967;SDS011;39536;52.198;9.920;2023-05-21T11:13:17;21.93;;;20.00;;
13967;SDS011;39536;52.198;9.920;2023-05-21T11:16:06;22.50;;;21.00;;
13967;SDS011;39536;52.198;9.920;2023-05-21T11:21:28;21.40;;;20.00;;
13967;SDS011;39536;52.198;9.920;2023-05-21T11:23:58;20.77;;;19.33;;
13967;SDS011;39536;52.198;9.920;2023-05-21T11:26:27;21.27;;;19.70;;
13967;SDS011;39536;52.198;9.920;2023-05-21T11:31:44;21.67;;;20.37;;
13967;SDS011;39536;52.198;9.920;2023-05-21T11:34:11;20.50;;;19.30;;
13967;SDS011;39536;52.198;9.920;2023-05-21T11:36:38;20.40;;;19.10;;
13967;SDS011;39536;52.198;9.920;2023-05-21T11:39:09;19.60;;;18.40;;
13967;SDS011;39536;52.198;9.920;2023-05-21T11:41:49;20.60;;;19.20;;
13967;SDS011;39536;52.198;9.920;2023-05-21T11:44:17;21.77;;;20.37;;
13967;SDS011;39536;52.198;9.920;2023-05-21T11:46:45;19.93;;;18.70;;
13967;SDS011;39536;52.198;9.920;2023-05-21T11:49:11;20.67;;;19.37;;
13967;SDS011;39536;52.198;9.920;2023-05-21T11:51:38;20.43;;;19.20;;
13967;SDS011;39536;52.198;9.920;2023-05-21T11:54:07;19.27;;;18.03;;
13967;SDS011;39536;52.198;9.920;2023-05-21T11:56:35;19.97;;;18.67;;
13967;SDS011;39536;52.198;9.920;2023-05-21T11:59:11;21.07;;;19.60;;
13967;SDS011;39536;52.198;9.920;2023-05-21T12:01:40;20.23;;;18.93;;
13967;SDS011;39536;52.198;9.920;2023-05-21T12:04:09;20.07;;;18.77;;
13967;SDS011;39536;52.198;9.920;2023-05-21T12:06:36;18.67;;;17.57;;
13967;SDS011;39536;52.198;9.920;2023-05-21T12:09:06;19.70;;;18.40;;
13967;SDS011;39536;52.198;9.920;2023-05-21T12:11:34;20.40;;;19.20;;
13967;SDS011;39536;52.198;9.920;2023-05-21T12:14:05;18.70;;;17.50;;
13967;SDS011;39536;52.198;9.920;2023-05-21T12:16:33;19.10;;;17.40;;
13967;SDS011;39536;52.198;9.920;2023-05-21T12:19:00;18.47;;;17.27;;
13967;SDS011;39536;52.198;9.920;2023-05-21T12:21:28;17.20;;;16.07;;
13967;SDS011;39536;52.198;9.920;2023-05-21T12:23:55;18.30;;;17.20;;
13967;SDS011;39536;52.198;9.920;2023-05-21T12:26:22;20.20;;;18.80;;
13967;SDS011;39536;52.198;9.920;2023-05-21T12:28:50;19.83;;;18.43;;
13967;SDS011;39536;52.198;9.920;2023-05-21T12:31:17;18.87;;;17.53;;
13967;SDS011;39536;52.198;9.920;2023-05-21T12:33:43;18.97;;;17.77;;
13967;SDS011;39536;52.198;9.920;2023-05-21T12:36:18;19.50;;;18.00;;
13967;SDS011;39536;52.198;9.920;2023-05-21T12:38:48;18.43;;;17.20;;
13967;SDS011;39536;52.198;9.920;2023-05-21T12:41:15;18.73;;;17.67;;
13967;SDS011;39536;52.198;9.920;2023-05-21T12:43:42;18.90;;;17.60;;
13967;SDS011;39536;52.198;9.920;2023-05-21T12:46:09;18.70;;;17.40;;
13967;SDS011;39536;52.198;9.920;2023-05-21T12:48:38;17.90;;;16.73;;
13967;SDS011;39536;52.198;9.920;2023-05-21T12:51:05;18.93;;;17.17;;
13967;SDS011;39536;52.198;9.920;2023-05-21T12:53:35;18.43;;;17.23;;
13967;SDS011;39536;52.198;9.920;2023-05-21T12:56:08;18.53;;;17.43;;
13967;SDS011;39536;52.198;9.920;2023-05-21T12:58:35;18.97;;;17.87;;
13967;SDS011;39536;52.198;9.920;2023-05-21T13:01:04;19.40;;;17.87;;
13967;SDS011;39536;52.198;9.920;2023-05-21T13:03:31;17.77;;;16.77;;
13967;SDS011;39536;52.198;9.920;2023-05-21T13:05:58;19.63;;;18.33;;
13967;SDS011;39536;52.198;9.920;2023-05-21T13:08:25;18.53;;;17.33;;
13967;SDS011;39536;52.198;9.920;2023-05-21T13:10:51;18.53;;;17.43;;
13967;SDS011;39536;52.198;9.920;2023-05-21T13:13:19;17.70;;;16.60;;
13967;SDS011;39536;52.198;9.920;2023-05-21T13:15:46;19.53;;;18.03;;
13967;SDS011;39536;52.198;9.920;2023-05-21T13:18:13;19.00;;;17.70;;
13967;SDS011;39536;52.198;9.920;2023-05-21T13:20:40;18.23;;;16.97;;
13967;SDS011;39536;52.198;9.920;2023-05-21T13:23:06;19.03;;;17.73;;
13967;SDS011;39536;52.198;9.920;2023-05-21T13:25:33;18.03;;;16.93;;
13967;SDS011;39536;52.198;9.920;2023-05-21T13:28:00;17.73;;;16.73;;
13967;SDS011;39536;52.198;9.920;2023-05-21T13:30:29;18.00;;;16.90;;
13967;SDS011;39536;52.198;9.920;2023-05-21T13:32:57;18.07;;;16.80;;
13967;SDS011;39536;52.198;9.920;2023-05-21T13:35:23;18.00;;;16.77;;
13967;SDS011;39536;52.198;9.920;2023-05-21T13:37:50;19.63;;;17.80;;
13967;SDS011;39536;52.198;9.920;2023-05-21T13:40:17;18.70;;;17.60;;
13967;SDS011;39536;52.198;9.920;2023-05-21T13:42:44;19.10;;;17.90;;
13967;SDS011;39536;52.198;9.920;2023-05-21T13:45:12;19.00;;;17.80;;
13967;SDS011;39536;52.198;9.920;2023-05-21T13:47:41;18.53;;;17.23;;
13967;SDS011;39536;52.198;9.920;2023-05-21T13:50:08;19.30;;;18.20;;
13967;SDS011;39536;52.198;9.920;2023-05-21T13:52:35;19.60;;;18.20;;
13967;SDS011;39536;52.198;9.920;2023-05-21T13:55:03;18.80;;;17.50;;
13967;SDS011;39536;52.198;9.920;2023-05-21T13:57:30;18.17;;;16.97;;
13967;SDS011;39536;52.198;9.920;2023-05-21T13:59:57;18.57;;;17.37;;
13967;SDS011;39536;52.198;9.920;2023-05-21T14:02:24;18.93;;;17.77;;
13967;SDS011;39536;52.198;9.920;2023-05-21T14:04:53;19.00;;;17.70;;
13967;SDS011;39536;52.198;9.920;2023-05-21T14:07:19;18.37;;;17.07;;
13967;SDS011;39536;52.198;9.920;2023-05-21T14:09:46;17.97;;;16.77;;
13967;SDS011;39536;52.198;9.920;2023-05-21T14:12:13;19.10;;;17.83;;
13967;SDS011;39536;52.198;9.920;2023-05-21T14:14:40;17.23;;;16.23;;
13967;SDS011;39536;52.198;9.920;2023-05-21T14:17:07;17.33;;;16.13;;
13967;SDS011;39536;52.198;9.920;2023-05-21T14:19:34;16.77;;;15.77;;
13967;SDS011;39536;52.198;9.920;2023-05-21T14:22:02;16.80;;;15.50;;
13967;SDS011;39536;52.198;9.920;2023-05-21T14:24:28;16.77;;;15.37;;
13967;SDS011;39536;52.198;9.920;2023-05-21T14:26:55;16.30;;;15.30;;
13967;SDS011;39536;52.198;9.920;2023-05-21T14:29:21;15.97;;;14.77;;
13967;SDS011;39536;52.198;9.920;2023-05-21T14:31:48;15.10;;;14.20;;
13967;SDS011;39536;52.198;9.920;2023-05-21T14:34:15;14.63;;;13.73;;
13967;SDS011;39536;52.198;9.920;2023-05-21T14:36:41;14.90;;;14.00;;